Time;durP1;ratioP1;P1;durP2;ratioP2;P2;SDS_P1;SDS_P2;PMS_P1;PMS_P2;Temp;Humidity;BMP_temperature;BMP_pressure;BME280_temperature;BME280_humidity;BME280_pressure;Samples;Min_cycle;Max_cycle;Signal;HPM_P1;HPM_P2
2022/08/07 00:00:45;;;;;;;2.90;2.00;;;;;;;;;;5016074;28;20221;-94
2022/08/07 00:03:25;;;;;;;;;;;;;;;;;;;;;
2022/08/07 00:06:06;;;;;;;1.83;1.67;;;;;;;;;;5020273;28;20205;-93
2022/08/07 00:08:39;;;;;;;1.90;1.80;;;;;;;;;;5019599;28;20281;-94
2022/08/07 00:11:16;;;;;;;2.60;1.80;;;;;;;;;;5029959;28;20236;-95
2022/08/07 00:13:57;;;;;;;2.33;1.73;;;;;;;;;;5022245;28;20214;-95
2022/08/07 00:19:17;;;;;;;2.50;1.90;;;;;;;;;;5026748;28;20234;-93
2022/08/07 00:22:00;;;;;;;2.35;2.00;;;;;;;;;;5027936;28;20199;-93
2022/08/07 00:24:30;;;;;;;2.28;2.10;;;;;;;;;;5033612;28;20257;-94
2022/08/07 00:27:01;;;;;;;1.70;1.60;;;;;;;;;;5029261;28;20206;-95
2022/08/07 00:29:31;;;;;;;1.75;1.65;;;;;;;;;;5025476;28;20293;-95
2022/08/07 00:32:17;;;;;;;;;;;;;;;;;;;;;
2022/08/07 00:40:30;;;;;;;2.78;1.63;;;;;;;;;;5017351;28;20206;-95
2022/08/07 00:42:57;;;;;;;1.90;1.70;;;;;;;;;;5023762;28;20260;-93
2022/08/07 00:45:25;;;;;;;1.70;1.60;;;;;;;;;;5024154;28;20230;-93
2022/08/07 00:47:55;;;;;;;1.70;1.60;;;;;;;;;;5015179;28;20198;-92
2022/08/07 00:50:23;;;;;;;2.65;1.80;;;;;;;;;;5017844;28;20207;-93
2022/08/07 00:52:54;;;;;;;2.00;1.85;;;;;;;;;;5010712;28;20233;-93
2022/08/07 00:55:21;;;;;;;1.85;1.60;;;;;;;;;;5022420;28;20214;-93
2022/08/07 00:57:50;;;;;;;1.95;1.75;;;;;;;;;;5023330;28;20210;-93
2022/08/07 01:00:20;;;;;;;1.75;1.63;;;;;;;;;;5022042;28;20207;-93
2022/08/07 01:02:47;;;;;;;1.90;1.70;;;;;;;;;;5021724;28;20230;-93
2022/08/07 01:05:15;;;;;;;2.17;1.98;;;;;;;;;;5021736;28;20286;-93
2022/08/07 01:07:42;;;;;;;2.17;1.98;;;;;;;;;;5020096;28;20289;-93
2022/08/07 01:10:11;;;;;;;1.63;1.52;;;;;;;;;;5024535;28;20202;-94
2022/08/07 01:12:39;;;;;;;2.10;1.75;;;;;;;;;;5025483;28;20207;-94
2022/08/07 01:15:08;;;;;;;2.40;2.15;;;;;;;;;;5023049;28;20262;-94
2022/08/07 01:17:38;;;;;;;2.22;2.03;;;;;;;;;;5017287;28;20214;-93
2022/08/07 01:20:07;;;;;;;2.10;1.90;;;;;;;;;;5013598;28;20222;-92
2022/08/07 01:22:40;;;;;;;2.25;2.05;;;;;;;;;;5017841;28;20221;-93
2022/08/07 01:25:15;;;;;;;1.95;1.80;;;;;;;;;;5025825;28;20202;-93
2022/08/07 01:27:45;;;;;;;3.25;2.13;;;;;;;;;;5025670;28;20210;-91
2022/08/07 01:30:15;;;;;;;2.03;1.90;;;;;;;;;;5022667;28;20229;-93
2022/08/07 01:32:44;;;;;;;1.80;1.70;;;;;;;;;;5026355;28;20237;-91
2022/08/07 01:35:14;;;;;;;2.00;1.80;;;;;;;;;;5025110;28;20210;-92
2022/08/07 01:37:43;;;;;;;2.13;1.90;;;;;;;;;;5027343;28;20207;-91
2022/08/07 01:40:11;;;;;;;1.95;1.85;;;;;;;;;;5038815;28;20211;-96
2022/08/07 01:42:41;;;;;;;2.65;2.00;;;;;;;;;;5035565;28;20294;-91
2022/08/07 01:45:23;;;;;;;2.47;2.28;;;;;;;;;;5029503;28;20276;-92
2022/08/07 01:47:54;;;;;;;2.10;2.00;;;;;;;;;;5014683;28;20203;-92
2022/08/07 01:50:23;;;;;;;2.40;1.95;;;;;;;;;;5022108;28;20233;-93
2022/08/07 01:53:11;;;;;;;2.30;2.08;;;;;;;;;;5022205;28;20233;-92
2022/08/07 01:55:43;;;;;;;2.03;1.92;;;;;;;;;;5017016;28;20317;-94
2022/08/07 01:58:12;;;;;;;3.00;2.00;;;;;;;;;;5022990;28;20246;-94
2022/08/07 02:01:08;;;;;;;2.30;2.08;;;;;;;;;;5023324;28;20206;-94
2022/08/07 02:03:36;;;;;;;2.20;2.00;;;;;;;;;;5025577;28;20210;-94
2022/08/07 02:06:05;;;;;;;2.05;1.88;;;;;;;;;;5027229;28;20197;-94
2022/08/07 02:08:40;;;;;;;2.35;2.15;;;;;;;;;;5026051;28;20231;-94
2022/08/07 02:11:10;;;;;;;2.00;1.77;;;;;;;;;;5026959;28;20202;-95
2022/08/07 02:13:38;;;;;;;2.20;2.05;;;;;;;;;;5026629;28;20297;-94
2022/08/07 02:16:07;;;;;;;2.30;2.10;;;;;;;;;;5025587;28;20219;-95
2022/08/07 02:18:37;;;;;;;2.75;2.03;;;;;;;;;;5031789;28;20233;-94
2022/08/07 02:21:06;;;;;;;2.03;1.90;;;;;;;;;;5027054;28;20202;-94
2022/08/07 02:23:38;;;;;;;2.67;2.22;;;;;;;;;;5027859;28;20222;-94
2022/08/07 02:26:06;;;;;;;2.45;2.00;;;;;;;;;;5027312;28;20226;-94
2022/08/07 02:28:37;;;;;;;1.98;1.88;;;;;;;;;;5026883;28;20257;-94
2022/08/07 02:31:08;;;;;;;3.03;2.00;;;;;;;;;;5026396;28;20206;-94
2022/08/07 02:33:37;;;;;;;2.22;2.03;;;;;;;;;;5025810;28;20210;-93
2022/08/07 02:36:05;;;;;;;2.28;2.08;;;;;;;;;;5025731;28;20249;-94
2022/08/07 02:38:34;;;;;;;2.30;2.10;;;;;;;;;;5022703;28;20261;-94
2022/08/07 02:41:02;;;;;;;2.20;2.00;;;;;;;;;;5018005;28;20206;-91
2022/08/07 02:43:31;;;;;;;2.10;1.90;;;;;;;;;;5019884;28;20218;-92
2022/08/07 02:46:00;;;;;;;2.63;2.15;;;;;;;;;;5018807;28;20257;-94
2022/08/07 02:48:27;;;;;;;2.42;2.22;;;;;;;;;;5018092;28;20230;-93
2022/08/07 02:50:56;;;;;;;2.30;2.10;;;;;;;;;;5018256;28;20217;-94
2022/08/07 02:53:27;;;;;;;2.70;2.33;;;;;;;;;;5018023;28;20237;-93
2022/08/07 02:55:56;;;;;;;2.25;2.00;;;;;;;;;;5015810;28;20325;-94
2022/08/07 02:58:24;;;;;;;2.28;2.08;;;;;;;;;;5017456;28;20261;-93
2022/08/07 03:00:53;;;;;;;2.08;1.90;;;;;;;;;;5018466;28;20221;-93
2022/08/07 03:03:27;;;;;;;1.92;1.83;;;;;;;;;;5104343;22;20225;-90
2022/08/07 03:06:01;;;;;;;1.95;1.75;;;;;;;;;;5022991;28;20226;-93
2022/08/07 03:08:32;;;;;;;2.67;2.05;;;;;;;;;;5025928;28;20201;-93
2022/08/07 03:11:09;;;;;;;1.80;1.70;;;;;;;;;;5012856;28;20203;-93
2022/08/07 03:16:35;;;;;;;2.20;2.00;;;;;;;;;;5024774;28;20232;-90
2022/08/07 03:19:11;;;;;;;2.03;1.70;;;;;;;;;;5020756;28;20264;-90
2022/08/07 03:21:55;;;;;;;1.92;1.83;;;;;;;;;;5026370;28;20209;-90
2022/08/07 03:24:27;;;;;;;2.20;1.85;;;;;;;;;;5013864;28;20233;-90
2022/08/07 03:26:55;;;;;;;2.10;2.00;;;;;;;;;;5026108;28;20204;-90
2022/08/07 03:29:30;;;;;;;2.20;2.00;;;;;;;;;;5020542;28;20205;-90
2022/08/07 03:32:12;;;;;;;1.73;1.63;;;;;;;;;;5028811;28;20271;-90
2022/08/07 03:34:41;;;;;;;2.03;1.88;;;;;;;;;;5017072;28;20230;-90
2022/08/07 03:39:52;;;;;;;2.05;1.80;;;;;;;;;;5008474;28;20215;-90
2022/08/07 03:42:20;;;;;;;1.70;1.50;;;;;;;;;;5023212;28;20202;-90
2022/08/07 03:44:58;;;;;;;1.80;1.70;;;;;;;;;;5028685;28;20229;-91
2022/08/07 03:47:48;;;;;;;2.13;1.92;;;;;;;;;;5027039;28;20206;-93
2022/08/07 03:50:27;;;;;;;2.00;1.75;;;;;;;;;;5026483;28;20275;-93
2022/08/07 03:55:49;;;;;;;2.17;1.80;;;;;;;;;;4980173;28;20327;-91
2022/08/07 03:58:17;;;;;;;1.70;1.60;;;;;;;;;;5019008;28;20268;-92
2022/08/07 04:00:59;;;;;;;1.88;1.67;;;;;;;;;;5026407;28;20206;-93
2022/08/07 04:03:39;;;;;;;2.58;1.42;;;;;;;;;;5021073;28;20602;-93
2022/08/07 04:06:23;;;;;;;1.60;1.50;;;;;;;;;;5030419;28;20228;-93
2022/08/07 04:11:47;;;;;;;1.60;1.50;;;;;;;;;;5008567;28;20225;-93
2022/08/07 04:17:07;;;;;;;3.95;1.40;;;;;;;;;;5011817;28;20579;-92
2022/08/07 04:19:37;;;;;;;1.50;1.40;;;;;;;;;;5030482;28;20293;-93
2022/08/07 04:22:05;;;;;;;1.55;1.40;;;;;;;;;;5021628;28;20306;-93
2022/08/07 04:24:36;;;;;;;1.60;1.50;;;;;;;;;;5017558;28;20763;-93
2022/08/07 04:27:04;;;;;;;1.58;1.48;;;;;;;;;;5021128;28;20229;-91
2022/08/07 04:29:32;;;;;;;1.58;1.48;;;;;;;;;;5030507;28;20256;-93
2022/08/07 04:32:04;;;;;;;1.60;1.50;;;;;;;;;;5031201;28;20676;-93
2022/08/07 04:35:04;;;;;;;1.58;1.48;;;;;;;;;;5027161;28;20234;-93
2022/08/07 04:37:37;;;;;;;1.60;1.50;;;;;;;;;;5027819;28;20337;-93
2022/08/07 04:40:10;;;;;;;1.58;1.48;;;;;;;;;;5020672;28;20210;-93
2022/08/07 04:42:37;;;;;;;1.50;1.35;;;;;;;;;;5033722;28;20205;-93
2022/08/07 04:45:06;;;;;;;1.40;1.30;;;;;;;;;;5027050;28;20218;-92
2022/08/07 04:47:38;;;;;;;1.70;1.60;;;;;;;;;;5032864;28;20260;-92
2022/08/07 04:50:14;;;;;;;1.45;1.33;;;;;;;;;;5032745;28;20231;-93
2022/08/07 04:52:48;;;;;;;1.33;1.25;;;;;;;;;;5034060;28;20332;-92
2022/08/07 04:55:33;;;;;;;1.25;1.15;;;;;;;;;;5015254;28;20206;-93
2022/08/07 05:01:03;;;;;;;1.35;1.25;;;;;;;;;;5020315;28;20202;-93
2022/08/07 05:03:40;;;;;;;1.48;1.38;;;;;;;;;;5026319;28;20291;-92
2022/08/07 05:06:12;;;;;;;1.30;1.20;;;;;;;;;;5022111;28;20206;-92
2022/08/07 05:08:46;;;;;;;1.52;1.42;;;;;;;;;;5033684;28;20256;-93
2022/08/07 05:11:18;;;;;;;1.30;1.20;;;;;;;;;;5027052;28;20202;-93
2022/08/07 05:16:46;;;;;;;1.25;1.17;;;;;;;;;;5034323;28;20228;-93
2022/08/07 05:19:21;;;;;;;1.50;1.40;;;;;;;;;;5025768;28;20213;-92
2022/08/07 05:21:54;;;;;;;1.75;1.20;;;;;;;;;;5030827;28;20213;-93
2022/08/07 05:24:25;;;;;;;2.17;1.38;;;;;;;;;;5033438;28;20308;-93
2022/08/07 05:26:58;;;;;;;1.60;1.50;;;;;;;;;;5021317;28;20214;-93
2022/08/07 05:29:35;;;;;;;1.73;1.23;;;;;;;;;;5019410;28;20648;-92
2022/08/07 05:32:13;;;;;;;1.38;1.15;;;;;;;;;;5021052;28;20280;-92
2022/08/07 05:34:47;;;;;;;2.15;1.20;;;;;;;;;;5014259;28;20227;-92
2022/08/07 05:37:23;;;;;;;1.40;1.30;;;;;;;;;;5026389;28;20236;-93
2022/08/07 05:39:50;;;;;;;1.38;1.27;;;;;;;;;;5027183;28;20201;-92
2022/08/07 05:42:44;;;;;;;1.30;1.20;;;;;;;;;;5026160;28;20210;-93
2022/08/07 05:48:19;;;;;;;1.85;1.23;;;;;;;;;;4973743;28;20203;-92
2022/08/07 05:50:52;;;;;;;1.70;1.40;;;;;;;;;;5012094;28;20290;-92
2022/08/07 05:56:11;;;;;;;1.50;1.25;;;;;;;;;;5016907;28;20202;-91
2022/08/07 05:58:41;;;;;;;1.30;1.20;;;;;;;;;;5023810;28;20228;-93
2022/08/07 06:01:28;;;;;;;1.35;1.20;;;;;;;;;;5027000;28;20203;-93
2022/08/07 06:03:56;;;;;;;2.25;1.33;;;;;;;;;;5025903;28;20409;-93
2022/08/07 06:06:26;;;;;;;2.20;1.50;;;;;;;;;;5025039;28;20217;-94
2022/08/07 06:08:57;;;;;;;3.25;1.38;;;;;;;;;;5024594;28;20233;-93
2022/08/07 06:11:28;;;;;;;2.72;1.40;;;;;;;;;;5026294;28;20235;-93
2022/08/07 06:16:40;;;;;;;3.42;1.55;;;;;;;;;;5012016;28;20201;-93
2022/08/07 06:19:34;;;;;;;2.47;1.55;;;;;;;;;;5021716;28;20252;-94
2022/08/07 06:22:27;;;;;;;4.65;1.52;;;;;;;;;;5009589;28;20230;-93
2022/08/07 06:25:03;;;;;;;3.13;1.48;;;;;;;;;;5018423;28;20237;-93
2022/08/07 06:27:31;;;;;;;2.22;1.40;;;;;;;;;;5020801;28;20201;-93
2022/08/07 06:29:58;;;;;;;3.05;1.35;;;;;;;;;;5018393;28;20209;-92
2022/08/07 06:38:17;;;;;;;;;;;;;;;;;;;;;
2022/08/07 06:43:39;;;;;;;4.60;1.40;;;;;;;;;;4983992;28;20367;-93
2022/08/07 06:46:07;;;;;;;3.80;1.75;;;;;;;;;;4972591;28;20203;-92
2022/08/07 06:48:46;;;;;;;;;;;;;;;;;;;;;
2022/08/07 06:51:23;;;;;;;6.22;1.90;;;;;;;;;;4980491;28;20208;-92
2022/08/07 06:54:02;;;;;;;3.35;1.73;;;;;;;;;;4984141;28;20242;-92
2022/08/07 06:56:45;;;;;;;4.70;1.55;;;;;;;;;;4978995;28;20792;-91
2022/08/07 06:59:27;;;;;;;4.70;1.60;;;;;;;;;;4985435;28;20253;-91
2022/08/07 07:01:59;;;;;;;2.75;1.45;;;;;;;;;;4988634;28;20211;-92
2022/08/07 07:04:44;;;;;;;2.03;1.40;;;;;;;;;;4979589;28;20297;-92
2022/08/07 07:07:16;;;;;;;1.63;1.40;;;;;;;;;;4977200;28;20210;-92
2022/08/07 07:09:48;;;;;;;2.50;1.80;;;;;;;;;;4973497;28;20294;-91
2022/08/07 07:12:33;;;;;;;;;;;;;;;;;;;;;
2022/08/07 07:15:13;;;;;;;2.00;1.50;;;;;;;;;;5026788;28;20218;-89
2022/08/07 07:17:44;;;;;;;1.90;1.55;;;;;;;;;;5027617;28;20227;-91
2022/08/07 07:20:17;;;;;;;2.45;1.60;;;;;;;;;;5020929;28;20204;-90
2022/08/07 07:22:48;;;;;;;3.70;1.58;;;;;;;;;;5022378;28;20616;-89
2022/08/07 07:25:16;;;;;;;2.38;1.60;;;;;;;;;;5020963;28;20209;-91
2022/08/07 07:27:52;;;;;;;1.42;1.27;;;;;;;;;;5019014;28;20242;-90
2022/08/07 07:30:23;;;;;;;2.42;1.88;;;;;;;;;;5020677;28;20202;-90
2022/08/07 07:32:51;;;;;;;2.15;1.50;;;;;;;;;;5020753;28;20281;-90
2022/08/07 07:35:23;;;;;;;2.10;1.63;;;;;;;;;;5034127;28;20206;-90
2022/08/07 07:37:56;;;;;;;1.90;1.45;;;;;;;;;;5041830;28;20217;-90
2022/08/07 07:43:10;;;;;;;1.60;1.50;;;;;;;;;;5032354;28;20244;-92
2022/08/07 07:45:52;;;;;;;2.30;1.70;;;;;;;;;;5036082;28;20236;-92
2022/08/07 08:00:45;;;;;;;1.75;1.60;;;;;;;;;;5029836;28;20297;-90
2022/08/07 08:03:16;;;;;;;1.70;1.60;;;;;;;;;;5021765;28;20382;-89
2022/08/07 08:05:53;;;;;;;1.92;1.58;;;;;;;;;;5022207;28;20222;-93
2022/08/07 08:08:21;;;;;;;2.58;1.55;;;;;;;;;;5023195;28;20213;-91
2022/08/07 08:10:48;;;;;;;1.90;1.50;;;;;;;;;;5026925;28;20198;-92
2022/08/07 08:13:16;;;;;;;1.83;1.73;;;;;;;;;;5022827;28;20245;-92
2022/08/07 08:15:50;;;;;;;1.88;1.70;;;;;;;;;;5024654;28;20202;-93
2022/08/07 08:18:20;;;;;;;1.65;1.55;;;;;;;;;;5019621;28;20237;-92
2022/08/07 08:20:51;;;;;;;1.85;1.50;;;;;;;;;;5025956;28;20260;-92
2022/08/07 08:29:00;;;;;;;2.33;1.70;;;;;;;;;;5025499;28;20208;-91
2022/08/07 08:31:48;;;;;;;6.38;1.90;;;;;;;;;;5025654;28;20205;-92
2022/08/07 08:34:38;;;;;;;3.38;1.48;;;;;;;;;;5031083;28;20332;-92
2022/08/07 08:37:19;;;;;;;3.40;1.58;;;;;;;;;;5024814;28;20202;-91
2022/08/07 08:39:48;;;;;;;2.72;1.65;;;;;;;;;;5021728;28;20230;-92
2022/08/07 08:42:35;;;;;;;;;;;;;;;;;;;;;
2022/08/07 08:50:56;;;;;;;1.77;1.67;;;;;;;;;;5020688;28;20210;-92
2022/08/07 08:56:44;;;;;;;1.40;1.30;;;;;;;;;;5022169;28;20720;-93
2022/08/07 09:02:30;;;;;;;1.30;1.20;;;;;;;;;;5023778;28;20213;-92
2022/08/07 09:05:07;;;;;;;1.88;1.30;;;;;;;;;;5133936;22;20229;-92
2022/08/07 09:07:48;;;;;;;1.27;1.17;;;;;;;;;;5014766;28;20206;-93
2022/08/07 09:10:28;;;;;;;1.50;1.40;;;;;;;;;;5003807;28;20213;-94
2022/08/07 09:13:08;;;;;;;2.28;1.48;;;;;;;;;;5011160;28;20289;-92
2022/08/07 09:15:52;;;;;;;1.40;1.30;;;;;;;;;;4988606;28;20206;-92
2022/08/07 09:18:32;;;;;;;1.38;1.27;;;;;;;;;;4984875;28;20274;-92
2022/08/07 09:21:14;;;;;;;1.50;1.40;;;;;;;;;;4992241;28;20227;-93
2022/08/07 09:24:03;;;;;;;1.17;1.10;;;;;;;;;;4978576;28;20230;-94
2022/08/07 09:29:40;;;;;;;1.33;1.23;;;;;;;;;;4990527;28;20211;-92
2022/08/07 09:32:24;;;;;;;1.60;1.50;;;;;;;;;;4987944;28;20787;-92
2022/08/07 09:34:59;;;;;;;1.30;1.20;;;;;;;;;;4990127;28;20291;-93
2022/08/07 09:37:37;;;;;;;1.40;1.30;;;;;;;;;;4986719;28;20215;-93
2022/08/07 09:40:22;;;;;;;1.30;1.20;;;;;;;;;;4988269;28;20211;-93
2022/08/07 10:05:53;;;;;;;1.23;1.10;;;;;;;;;;5119608;22;20230;-92
2022/08/07 10:21:07;;;;;;;1.20;1.10;;;;;;;;;;4900601;29;20217;-92
2022/08/07 10:23:47;;;;;;;1.92;1.10;;;;;;;;;;4897129;29;20954;-92
2022/08/07 10:29:47;;;;;;;1.38;1.25;;;;;;;;;;4947349;29;20200;-93
2022/08/07 10:33:15;;;;;;;1.10;1.00;;;;;;;;;;4951904;29;20208;-93
2022/08/07 11:20:51;;;;;;;1.65;1.00;;;;;;;;;;5016562;28;20268;-94
2022/08/07 11:23:41;;;;;;;0.80;0.80;;;;;;;;;;5015193;28;20286;-93
2022/08/07 11:26:29;;;;;;;0.80;0.80;;;;;;;;;;4993960;28;20234;-92
2022/08/07 11:29:06;;;;;;;0.75;0.75;;;;;;;;;;4991429;28;20207;-94
2022/08/07 11:37:28;;;;;;;1.20;0.90;;;;;;;;;;4992300;28;20252;-93
2022/08/07 13:51:51;;;;;;;2.17;0.95;;;;;;;;;;4983162;28;20227;-90
2022/08/07 13:54:29;;;;;;;2.53;0.90;;;;;;;;;;4981618;28;20234;-90
2022/08/07 13:57:01;;;;;;;2.80;1.02;;;;;;;;;;4980411;28;20253;-90
2022/08/07 13:59:30;;;;;;;3.22;1.00;;;;;;;;;;4982036;28;20220;-89
2022/08/07 14:02:06;;;;;;;2.28;1.00;;;;;;;;;;4999221;28;20227;-89
2022/08/07 14:04:49;;;;;;;1.30;1.13;;;;;;;;;;5007037;28;20271;-88
2022/08/07 14:07:24;;;;;;;1.65;1.10;;;;;;;;;;5005077;28;20203;-89
2022/08/07 14:09:56;;;;;;;3.55;1.63;;;;;;;;;;5006284;28;20239;-89
2022/08/07 14:12:26;;;;;;;2.47;1.00;;;;;;;;;;5013462;28;20179;-89
2022/08/07 14:15:10;;;;;;;2.90;1.48;;;;;;;;;;5006141;28;20231;-90
2022/08/07 14:18:05;;;;;;;;;;;;;;;;;;;;;
2022/08/07 14:20:52;;;;;;;0.93;0.90;;;;;;;;;;4990125;28;20200;-90
2022/08/07 14:23:24;;;;;;;0.85;0.85;;;;;;;;;;4980875;28;20212;-89
2022/08/07 14:25:57;;;;;;;0.90;0.90;;;;;;;;;;4983972;28;20273;-90
2022/08/07 14:28:27;;;;;;;0.90;0.80;;;;;;;;;;4977266;28;20204;-89
2022/08/07 14:30:55;;;;;;;1.77;0.90;;;;;;;;;;4979028;28;20214;-90
2022/08/07 14:33:38;;;;;;;1.00;1.00;;;;;;;;;;4979654;28;20207;-89
2022/08/07 14:36:07;;;;;;;0.90;0.90;;;;;;;;;;4974997;28;20299;-90
2022/08/07 14:38:43;;;;;;;1.10;0.95;;;;;;;;;;4992516;28;20293;-90
2022/08/07 14:41:27;;;;;;;1.42;1.05;;;;;;;;;;4979942;28;20215;-88
2022/08/07 14:43:55;;;;;;;0.95;0.93;;;;;;;;;;4984625;28;20230;-90
2022/08/07 14:46:30;;;;;;;0.80;0.80;;;;;;;;;;4980047;28;20207;-90
2022/08/07 14:48:58;;;;;;;0.95;0.95;;;;;;;;;;4982805;28;20218;-90
2022/08/07 14:51:28;;;;;;;0.93;0.93;;;;;;;;;;4984420;28;20207;-91
2022/08/07 14:54:05;;;;;;;1.33;1.00;;;;;;;;;;4981797;28;20759;-91
2022/08/07 14:56:37;;;;;;;1.00;1.00;;;;;;;;;;4983890;28;20213;-91
2022/08/07 15:02:24;;;;;;;1.25;1.08;;;;;;;;;;4886487;28;20199;-91
2022/08/07 16:07:08;;;;;;;1.30;1.20;;;;;;;;;;4989635;28;20231;-84
2022/08/07 16:09:39;;;;;;;1.27;1.17;;;;;;;;;;4988892;28;20214;-83
2022/08/07 16:12:13;;;;;;;1.00;1.00;;;;;;;;;;4983381;28;20267;-84
2022/08/07 16:14:58;;;;;;;1.23;1.13;;;;;;;;;;4993950;28;20269;-85
2022/08/07 16:17:32;;;;;;;1.05;1.05;;;;;;;;;;4992314;28;20203;-85
2022/08/07 16:20:12;;;;;;;1.40;1.30;;;;;;;;;;4990876;28;20215;-85
2022/08/07 16:22:53;;;;;;;1.00;1.00;;;;;;;;;;4987073;28;20207;-85
2022/08/07 16:25:31;;;;;;;1.08;0.98;;;;;;;;;;4989153;28;20317;-84
2022/08/07 16:28:07;;;;;;;1.27;1.17;;;;;;;;;;4982537;28;20242;-83
2022/08/07 16:30:38;;;;;;;1.30;1.20;;;;;;;;;;4980735;28;20548;-85
2022/08/07 16:33:09;;;;;;;0.85;0.82;;;;;;;;;;4990011;28;20311;-84
2022/08/07 16:35:39;;;;;;;1.10;1.10;;;;;;;;;;4984822;28;20235;-85
2022/08/07 16:38:28;;;;;;;1.30;1.20;;;;;;;;;;4984247;28;20207;-86
2022/08/07 16:41:11;;;;;;;1.27;1.17;;;;;;;;;;4985006;28;20273;-85
2022/08/07 16:43:54;;;;;;;1.00;1.00;;;;;;;;;;4984837;28;20220;-85
2022/08/07 16:46:29;;;;;;;1.33;1.23;;;;;;;;;;4984093;28;20249;-85
2022/08/07 16:49:08;;;;;;;1.20;1.10;;;;;;;;;;4993598;28;20229;-89
2022/08/07 16:54:49;;;;;;;1.20;1.00;;;;;;;;;;4929908;29;20251;-85
2022/08/07 16:57:25;;;;;;;1.42;1.10;;;;;;;;;;4920379;29;20197;-85
2022/08/07 16:59:56;;;;;;;1.30;1.20;;;;;;;;;;4934805;29;20235;-86
2022/08/07 17:02:38;;;;;;;1.20;1.10;;;;;;;;;;4939426;29;20212;-85
2022/08/07 17:05:31;;;;;;;1.25;1.15;;;;;;;;;;4934258;29;20344;-88
2022/08/07 17:07:59;;;;;;;1.40;1.30;;;;;;;;;;4935942;29;20213;-86
2022/08/07 17:10:31;;;;;;;1.40;1.30;;;;;;;;;;4934296;29;20206;-90
2022/08/07 17:13:04;;;;;;;1.25;1.17;;;;;;;;;;4919233;29;20293;-86
2022/08/07 17:15:37;;;;;;;1.10;1.00;;;;;;;;;;4936739;29;20307;-86
2022/08/07 17:18:17;;;;;;;1.17;1.10;;;;;;;;;;4935173;29;20249;-86
2022/08/07 17:20:47;;;;;;;1.30;1.20;;;;;;;;;;4946917;29;20241;-86
2022/08/07 17:23:28;;;;;;;1.10;1.00;;;;;;;;;;4942530;29;20726;-85
2022/08/07 17:26:03;;;;;;;1.23;1.08;;;;;;;;;;4934625;29;20324;-85
2022/08/07 17:28:34;;;;;;;1.00;1.00;;;;;;;;;;4934354;29;20213;-86
2022/08/07 17:31:04;;;;;;;1.45;1.00;;;;;;;;;;4946943;28;20210;-86
2022/08/07 17:33:34;;;;;;;1.38;1.27;;;;;;;;;;4982543;28;20203;-84
2022/08/07 17:36:08;;;;;;;1.67;1.00;;;;;;;;;;4994700;28;20227;-85
2022/08/07 17:38:44;;;;;;;1.50;1.05;;;;;;;;;;4990564;28;20214;-85
2022/08/07 17:41:16;;;;;;;1.08;1.00;;;;;;;;;;4992930;28;20219;-85
2022/08/07 17:43:47;;;;;;;1.02;1.02;;;;;;;;;;4994561;28;20211;-85
2022/08/07 17:46:19;;;;;;;1.10;1.08;;;;;;;;;;4994171;28;20285;-84
2022/08/07 17:48:51;;;;;;;1.00;0.90;;;;;;;;;;4991246;28;20211;-85
2022/08/07 17:51:21;;;;;;;1.08;0.93;;;;;;;;;;4989248;28;20234;-85
2022/08/07 17:53:50;;;;;;;1.30;1.20;;;;;;;;;;4983114;28;20245;-87
2022/08/07 17:56:25;;;;;;;1.00;1.00;;;;;;;;;;4991042;28;20247;-86
2022/08/07 17:58:58;;;;;;;1.70;1.10;;;;;;;;;;4996721;28;20298;-86
2022/08/07 18:01:26;;;;;;;1.05;1.00;;;;;;;;;;4993570;28;20254;-87
2022/08/07 18:04:06;;;;;;;1.02;1.02;;;;;;;;;;4989682;28;20286;-88
2022/08/07 18:06:36;;;;;;;0.82;0.82;;;;;;;;;;4980759;28;20246;-87
2022/08/07 18:09:04;;;;;;;0.80;0.80;;;;;;;;;;4993494;28;20199;-87
2022/08/07 18:11:37;;;;;;;1.08;1.02;;;;;;;;;;4994069;28;20211;-87
2022/08/07 18:14:12;;;;;;;1.17;1.08;;;;;;;;;;4993526;28;20230;-88
2022/08/07 18:16:43;;;;;;;1.05;1.05;;;;;;;;;;4993529;28;20308;-87
2022/08/07 18:19:12;;;;;;;1.08;0.98;;;;;;;;;;4993656;28;20222;-87
2022/08/07 18:21:43;;;;;;;0.90;0.90;;;;;;;;;;4993447;28;20211;-87
2022/08/07 18:24:17;;;;;;;1.00;1.00;;;;;;;;;;4993433;28;20207;-87
2022/08/07 18:27:10;;;;;;;0.90;0.90;;;;;;;;;;5000668;28;20258;-87
2022/08/07 18:29:43;;;;;;;0.90;0.90;;;;;;;;;;5005642;28;20222;-87
2022/08/07 18:32:19;;;;;;;1.10;1.10;;;;;;;;;;4996899;28;20230;-86
2022/08/07 18:34:56;;;;;;;1.13;1.10;;;;;;;;;;4991246;28;20681;-87
2022/08/07 18:37:32;;;;;;;1.50;1.15;;;;;;;;;;4993335;28;20218;-85
2022/08/07 18:40:01;;;;;;;1.20;1.10;;;;;;;;;;4993611;28;20302;-85
2022/08/07 18:42:37;;;;;;;1.17;1.10;;;;;;;;;;4993336;28;20278;-87
2022/08/07 18:45:09;;;;;;;1.15;1.10;;;;;;;;;;4993080;28;20289;-87
2022/08/07 18:47:38;;;;;;;1.10;1.10;;;;;;;;;;4993136;28;20235;-86
2022/08/07 18:50:20;;;;;;;1.17;1.17;;;;;;;;;;4993456;28;20207;-86
2022/08/07 18:53:05;;;;;;;1.08;1.08;;;;;;;;;;4985081;28;20275;-87
2022/08/07 18:55:38;;;;;;;1.40;1.30;;;;;;;;;;4991515;28;20273;-86
2022/08/07 18:58:16;;;;;;;1.02;1.02;;;;;;;;;;4993193;28;20203;-87
2022/08/07 19:00:53;;;;;;;1.00;1.00;;;;;;;;;;4992939;28;20229;-85
2022/08/07 19:03:25;;;;;;;1.10;1.10;;;;;;;;;;4992159;28;20270;-86
2022/08/07 19:06:00;;;;;;;1.35;1.10;;;;;;;;;;4992515;28;20238;-87
2022/08/07 19:08:30;;;;;;;1.75;1.05;;;;;;;;;;4995481;28;20211;-87
2022/08/07 19:11:00;;;;;;;1.00;1.00;;;;;;;;;;4996546;28;20203;-86
2022/08/07 19:13:37;;;;;;;1.13;1.13;;;;;;;;;;4989286;28;20209;-87
2022/08/07 19:16:09;;;;;;;1.23;1.13;;;;;;;;;;5002064;28;20222;-86
2022/08/07 19:18:40;;;;;;;1.23;1.10;;;;;;;;;;5014717;28;20206;-87
2022/08/07 19:21:15;;;;;;;1.20;1.10;;;;;;;;;;4996675;28;20223;-87
2022/08/07 19:23:51;;;;;;;1.25;1.15;;;;;;;;;;4997164;28;20261;-85
2022/08/07 19:26:21;;;;;;;1.00;1.00;;;;;;;;;;4995624;28;20574;-85
2022/08/07 19:28:53;;;;;;;1.05;1.05;;;;;;;;;;4993954;28;20213;-85
2022/08/07 19:31:25;;;;;;;1.40;1.30;;;;;;;;;;4996441;28;20211;-87
2022/08/07 19:33:54;;;;;;;1.52;1.00;;;;;;;;;;4990363;28;20218;-87
2022/08/07 19:36:28;;;;;;;1.10;1.08;;;;;;;;;;4985273;28;20720;-86
2022/08/07 19:39:05;;;;;;;1.38;1.27;;;;;;;;;;4988101;28;20204;-87
2022/08/07 19:41:44;;;;;;;1.00;1.00;;;;;;;;;;4988062;28;20227;-86
2022/08/07 19:44:16;;;;;;;3.25;1.40;;;;;;;;;;4993941;28;20222;-87
2022/08/07 19:46:45;;;;;;;1.27;1.20;;;;;;;;;;4993521;28;20225;-87
2022/08/07 19:49:19;;;;;;;5.30;1.50;;;;;;;;;;4990519;28;20207;-86
2022/08/07 19:51:47;;;;;;;17.45;4.68;;;;;;;;;;4987161;28;20207;-85
2022/08/07 19:54:17;;;;;;;34.10;6.72;;;;;;;;;;4980789;28;20235;-86
2022/08/07 19:56:46;;;;;;;6.55;2.60;;;;;;;;;;4988328;28;20226;-85
2022/08/07 19:59:17;;;;;;;3.92;1.90;;;;;;;;;;4981719;28;20214;-85
2022/08/07 20:01:46;;;;;;;6.45;2.17;;;;;;;;;;4983618;28;20322;-84
2022/08/07 20:04:15;;;;;;;4.05;2.20;;;;;;;;;;4985484;28;20287;-86
2022/08/07 20:06:43;;;;;;;4.35;1.88;;;;;;;;;;4992535;28;20238;-88
2022/08/07 20:09:16;;;;;;;4.30;1.90;;;;;;;;;;4989988;28;20207;-89
2022/08/07 20:11:45;;;;;;;6.38;2.20;;;;;;;;;;4996136;28;20211;-86
2022/08/07 20:14:15;;;;;;;4.60;2.15;;;;;;;;;;4996369;28;20211;-86
2022/08/07 20:16:46;;;;;;;4.95;2.13;;;;;;;;;;4996472;28;20278;-85
2022/08/07 20:19:19;;;;;;;6.95;2.72;;;;;;;;;;4995803;28;20201;-86
2022/08/07 20:21:47;;;;;;;8.93;2.88;;;;;;;;;;4995928;28;20223;-85
2022/08/07 20:24:17;;;;;;;6.47;2.40;;;;;;;;;;4996418;28;20211;-86
2022/08/07 20:26:48;;;;;;;7.53;2.75;;;;;;;;;;5005128;28;20234;-86
2022/08/07 20:29:17;;;;;;;8.57;2.75;;;;;;;;;;5007422;28;20200;-86
2022/08/07 20:31:46;;;;;;;7.20;2.58;;;;;;;;;;4993902;28;20207;-86
2022/08/07 20:34:17;;;;;;;6.22;2.88;;;;;;;;;;4992467;28;20262;-85
2022/08/07 20:36:45;;;;;;;6.13;2.95;;;;;;;;;;4995516;28;20219;-86
2022/08/07 20:39:15;;;;;;;9.38;2.95;;;;;;;;;;4995082;28;20291;-86
2022/08/07 20:41:42;;;;;;;7.00;3.10;;;;;;;;;;4995444;28;20239;-86
2022/08/07 20:44:10;;;;;;;8.50;2.88;;;;;;;;;;4995151;28;20661;-85
2022/08/07 20:46:37;;;;;;;10.45;2.53;;;;;;;;;;4995425;28;20230;-87
2022/08/07 20:49:09;;;;;;;7.45;2.38;;;;;;;;;;4985597;28;20199;-84
2022/08/07 20:51:37;;;;;;;13.98;2.70;;;;;;;;;;4995664;28;20222;-86
2022/08/07 20:54:05;;;;;;;5.93;2.40;;;;;;;;;;4995428;28;20211;-86
2022/08/07 20:56:39;;;;;;;11.00;2.80;;;;;;;;;;4994355;28;20281;-87
2022/08/07 20:59:08;;;;;;;4.78;2.25;;;;;;;;;;4994708;28;20302;-87
2022/08/07 21:01:40;;;;;;;4.57;2.28;;;;;;;;;;4994247;28;20223;-86
2022/08/07 21:04:09;;;;;;;6.13;2.60;;;;;;;;;;4994160;28;20203;-87
